Accueil
METAR-TAF:

METAR-TAF

Aéroports :

Aéroport Santander Seve Ballesteros

Santander, Espagne

latitude: 43-26N, longitude: 003-49W, altitude: 6 m

Observation

Le bulletin a été fait il y a 30 minutes, à 05:00 UTC
Vent 8 kt de sud-ouest
Température 14°C
Humidité 72%
Pression 1020 hPa
Visibilité 10 km ou plus
Nuages fragmentés à une hauteur de 4400 ft

METAR: LEXJ 280500Z 23008KT 9999 BKN044 14/09 Q1020

Heure: 07:30 (05:30 UTC)

Prévision

Le bulletin a été fait il y a 3 heures et 30 minutes, à 02:00 UTC
Prévision valable du 28 à 03 UTC au 29 à 03 UTC
Vent 7 kt de ouest/sud-ouest
Visibilité 10 km ou plus
Nuages épars à une hauteur de 5000 ft

TAF: LEXJ 280200Z 2803/2903 25007KT 9999 SCT050 TX19/2814Z TN11/2806Z

Observations et prévisions météorologiques de plus de 4000 aéroports (messages METAR et TAF).

Les stations disponibles sont représentées par des disques jaunes et rouges sur la carte.

Passer la souris dessus pour voir le nom de la station.

Cliquer dessus pour voir les observations et prévisions météorologiques.

Pour changer de carte: cliquez sur les boutons verts avec une croix noire pour zoomer, sur le bouton vert avec un tiret pour effectuer un zoom arrière, ou sur les flèches vertes pour les cartes adjacentes.


METAR-TAF: